createdAt,value
2019-04-30T00:00:47.803Z,6.55
2019-04-30T00:03:35.232Z,6.40
2019-04-30T00:06:10.228Z,6.22
2019-04-30T00:08:45.164Z,6.17
2019-04-30T00:11:19.582Z,6.21
2019-04-30T00:13:55.296Z,6.22
2019-04-30T00:16:31.100Z,6.15
2019-04-30T00:19:06.042Z,6.10
2019-04-30T00:21:39.149Z,6.09
2019-04-30T00:24:13.137Z,6.10
2019-04-30T00:26:52.092Z,6.10
2019-04-30T00:29:26.969Z,6.05
2019-04-30T00:31:57.633Z,6.08
2019-04-30T00:34:35.897Z,6.17
2019-04-30T00:37:13.659Z,6.29
2019-04-30T00:39:44.353Z,6.43
2019-04-30T00:42:17.341Z,6.64
2019-04-30T00:44:51.149Z,6.71
2019-04-30T00:47:25.648Z,6.75
2019-04-30T00:50:00.287Z,6.76
2019-04-30T00:52:35.202Z,6.69
2019-04-30T00:55:09.317Z,6.64
2019-04-30T00:57:43.952Z,6.64
2019-04-30T01:00:25.091Z,6.70
2019-04-30T01:03:10.773Z,6.80
2019-04-30T01:05:47.810Z,6.90
2019-04-30T01:08:21.224Z,6.98
2019-04-30T01:10:55.613Z,7.05
2019-04-30T01:13:29.138Z,7.02
2019-04-30T01:16:02.594Z,7.02
2019-04-30T01:18:35.961Z,7.01
2019-04-30T01:21:11.334Z,6.98
2019-04-30T01:23:51.732Z,7.02
2019-04-30T01:26:22.853Z,7.04
2019-04-30T01:29:00.550Z,7.00
2019-04-30T01:31:37.320Z,6.97
2019-04-30T01:34:10.341Z,6.94
2019-04-30T01:36:50.745Z,6.99
2019-04-30T01:39:23.612Z,6.98
2019-04-30T01:41:54.932Z,6.85
2019-04-30T01:44:29.505Z,6.61
2019-04-30T01:47:02.802Z,6.47
2019-04-30T01:49:42.179Z,6.40
2019-04-30T01:52:11.516Z,6.31
2019-04-30T01:54:44.719Z,6.31
2019-04-30T01:57:46.254Z,6.27
2019-04-30T02:00:25.154Z,6.24
2019-04-30T02:02:59.300Z,6.26
2019-04-30T02:05:32.811Z,6.31
2019-04-30T02:08:05.981Z,6.21
2019-04-30T02:10:40.366Z,6.21
2019-04-30T02:13:13.864Z,6.12
2019-04-30T02:15:49.057Z,6.02
2019-04-30T02:18:21.822Z,5.94
2019-04-30T02:20:56.066Z,6.05
2019-04-30T02:23:29.801Z,6.03
2019-04-30T02:26:03.270Z,6.07
2019-04-30T02:28:36.498Z,6.20
2019-04-30T02:31:11.056Z,6.22
2019-04-30T02:33:46.956Z,6.08
2019-04-30T02:36:29.917Z,5.84
2019-04-30T02:39:03.616Z,5.81
2019-04-30T02:41:41.050Z,5.89
2019-04-30T02:44:14.957Z,5.83
2019-04-30T02:46:51.462Z,5.71
2019-04-30T02:49:26.883Z,5.63
2019-04-30T02:52:02.229Z,5.75
2019-04-30T02:54:39.735Z,5.80
2019-04-30T02:57:14.282Z,5.85
2019-04-30T03:00:05.088Z,5.77
2019-04-30T03:02:41.022Z,5.67
2019-04-30T03:05:15.771Z,5.67
2019-04-30T03:07:50.417Z,5.58
2019-04-30T03:10:25.075Z,5.50
2019-04-30T03:13:00.029Z,5.29
2019-04-30T03:15:34.476Z,5.22
2019-04-30T03:18:30.209Z,5.30
2019-04-30T03:21:20.303Z,5.35
2019-04-30T03:23:54.193Z,5.38
2019-04-30T03:26:29.740Z,5.41
2019-04-30T03:29:03.961Z,5.38
2019-04-30T03:31:42.834Z,5.41
2019-04-30T03:34:23.352Z,5.47
2019-04-30T03:36:50.466Z,5.44
2019-04-30T03:39:23.967Z,5.43
2019-04-30T03:41:59.737Z,5.42
2019-04-30T03:44:33.887Z,5.45
2019-04-30T03:47:10.589Z,5.44
2019-04-30T03:49:51.206Z,5.22
2019-04-30T03:52:24.535Z,5.04
2019-04-30T03:55:02.467Z,4.87
2019-04-30T03:57:33.158Z,4.77
2019-04-30T04:00:09.405Z,4.70
2019-04-30T04:02:45.100Z,4.62
2019-04-30T04:05:30.798Z,4.54
2019-04-30T04:08:22.891Z,4.48
2019-04-30T04:11:01.342Z,4.52
2019-04-30T04:13:34.608Z,4.63
2019-04-30T04:16:09.780Z,4.58
2019-04-30T04:18:43.643Z,4.57
2019-04-30T04:21:18.096Z,4.51
2019-04-30T04:23:51.851Z,4.49
2019-04-30T04:26:25.166Z,4.41
2019-04-30T04:28:59.386Z,4.29
2019-04-30T04:31:33.148Z,4.20
2019-04-30T04:34:09.259Z,4.20
2019-04-30T04:36:43.484Z,4.27
2019-04-30T04:39:20.172Z,4.38
2019-04-30T04:41:53.433Z,4.48
2019-04-30T04:44:29.375Z,4.61
2019-04-30T04:47:02.027Z,4.78
2019-04-30T04:49:36.718Z,5.02
2019-04-30T04:52:10.367Z,5.14
2019-04-30T04:54:44.072Z,5.16
2019-04-30T04:57:23.246Z,5.30
2019-04-30T04:59:59.589Z,5.37
2019-04-30T05:02:46.116Z,5.41
2019-04-30T05:05:20.475Z,5.38
2019-04-30T05:07:54.102Z,5.25
2019-04-30T05:10:29.169Z,5.10
2019-04-30T05:13:02.873Z,5.15
2019-04-30T05:15:36.535Z,5.19
2019-04-30T05:18:10.497Z,5.26
2019-04-30T05:20:44.055Z,5.34
2019-04-30T05:23:21.544Z,5.40
2019-04-30T05:25:52.914Z,5.49
2019-04-30T05:28:26.508Z,5.61
2019-04-30T05:31:14.039Z,5.71
2019-04-30T05:33:48.899Z,6.02
2019-04-30T05:36:29.248Z,7.15
2019-04-30T05:39:03.809Z,8.07
2019-04-30T05:41:38.659Z,9.00
2019-04-30T05:44:13.420Z,9.70
2019-04-30T05:46:49.410Z,10.00
2019-04-30T05:49:23.437Z,10.91
2019-04-30T05:51:57.134Z,11.40
2019-04-30T05:54:30.152Z,12.05
2019-04-30T05:57:04.077Z,12.22
2019-04-30T05:59:38.784Z,12.92
2019-04-30T06:02:12.418Z,13.63
2019-04-30T06:04:46.278Z,14.15
2019-04-30T06:07:19.714Z,14.78
2019-04-30T06:10:09.279Z,15.12
2019-04-30T06:13:09.080Z,15.41
2019-04-30T06:15:55.502Z,15.60
2019-04-30T06:18:29.299Z,16.08
2019-04-30T06:21:02.726Z,16.29
2019-04-30T06:23:36.931Z,16.11
2019-04-30T06:26:13.035Z,16.53
2019-04-30T06:28:46.346Z,17.06
2019-04-30T06:31:31.654Z,17.47
2019-04-30T06:33:54.981Z,17.60
2019-04-30T06:36:29.405Z,17.37
2019-04-30T06:39:03.419Z,17.59
2019-04-30T06:41:40.815Z,17.54
2019-04-30T06:44:14.100Z,17.76
2019-04-30T06:46:48.814Z,17.45
2019-04-30T06:49:24.246Z,17.68
2019-04-30T06:51:58.801Z,17.66
2019-04-30T06:54:34.596Z,18.33
2019-04-30T06:57:09.786Z,18.51
2019-04-30T06:59:43.327Z,18.18
2019-04-30T07:02:19.515Z,17.80
2019-04-30T07:04:52.246Z,18.41
2019-04-30T07:07:37.090Z,17.35
2019-04-30T07:10:23.071Z,18.81
2019-04-30T07:13:18.875Z,18.93
2019-04-30T07:15:52.683Z,20.12
2019-04-30T07:18:25.807Z,21.05
2019-04-30T07:20:58.875Z,21.39
2019-04-30T07:23:33.967Z,21.72
2019-04-30T07:26:09.055Z,22.15
2019-04-30T07:28:49.609Z,22.34
2019-04-30T07:31:20.092Z,22.44
2019-04-30T07:33:54.193Z,22.80
2019-04-30T07:36:45.166Z,21.97
2019-04-30T07:39:09.976Z,20.44
2019-04-30T07:41:44.240Z,19.50
2019-04-30T07:44:31.046Z,19.20
2019-04-30T07:46:53.221Z,18.00
2019-04-30T07:49:46.508Z,17.84
2019-04-30T07:52:04.061Z,17.39
2019-04-30T07:54:39.616Z,17.65
2019-04-30T07:57:16.186Z,16.69
2019-04-30T07:59:50.862Z,17.06
2019-04-30T08:02:24.707Z,17.31
2019-04-30T08:05:10.290Z,18.72
2019-04-30T08:07:43.199Z,20.56
2019-04-30T08:10:18.786Z,22.39
2019-04-30T08:13:08.616Z,22.30
2019-04-30T08:15:32.226Z,22.72
2019-04-30T08:18:06.027Z,23.85
2019-04-30T08:20:40.387Z,23.89
2019-04-30T08:23:30.565Z,23.38
2019-04-30T08:25:49.654Z,23.46
2019-04-30T08:28:23.517Z,23.76
2019-04-30T08:30:58.975Z,23.10
2019-04-30T08:33:32.799Z,23.56
2019-04-30T08:36:06.847Z,23.18
2019-04-30T08:38:41.370Z,22.72
2019-04-30T08:41:15.839Z,22.90
2019-04-30T08:43:49.865Z,20.50
2019-04-30T08:46:23.157Z,21.68
2019-04-30T08:48:58.757Z,23.22
2019-04-30T08:51:33.696Z,24.71
2019-04-30T08:54:07.359Z,25.56
2019-04-30T08:56:44.702Z,25.50
2019-04-30T08:59:19.491Z,23.58
2019-04-30T09:01:53.625Z,24.10
2019-04-30T09:04:30.054Z,23.63
2019-04-30T09:07:05.042Z,22.63
2019-04-30T09:09:39.306Z,24.53
2019-04-30T09:12:13.697Z,25.10
2019-04-30T09:14:49.078Z,23.71
2019-04-30T09:17:23.383Z,22.06
2019-04-30T09:19:58.952Z,23.85
2019-04-30T09:22:32.675Z,21.92
2019-04-30T09:25:06.708Z,24.29
2019-04-30T09:27:41.375Z,24.10
2019-04-30T09:30:18.915Z,24.36
2019-04-30T09:32:53.011Z,26.32
2019-04-30T09:35:31.833Z,27.00
2019-04-30T09:38:05.030Z,28.12
2019-04-30T09:40:41.277Z,27.79
2019-04-30T09:43:14.266Z,26.19
2019-04-30T09:45:50.064Z,27.25
2019-04-30T09:48:24.428Z,27.50
2019-04-30T09:51:01.536Z,28.17
2019-04-30T09:53:35.653Z,28.78
2019-04-30T09:56:09.658Z,28.02
2019-04-30T09:58:43.092Z,27.59
2019-04-30T10:01:17.062Z,28.14
2019-04-30T10:03:51.308Z,28.20
2019-04-30T10:06:37.112Z,28.38
2019-04-30T10:09:01.058Z,27.07
2019-04-30T10:11:45.441Z,27.65
2019-04-30T10:14:19.204Z,27.61
2019-04-30T10:17:11.185Z,27.48
2019-04-30T10:19:45.302Z,27.42
2019-04-30T10:22:19.087Z,26.82
2019-04-30T10:24:54.398Z,26.56
2019-04-30T10:27:29.497Z,26.03
2019-04-30T10:30:04.268Z,25.87
2019-04-30T10:32:38.791Z,26.35
2019-04-30T10:35:13.149Z,26.66
2019-04-30T10:37:48.216Z,27.08
2019-04-30T10:40:23.392Z,27.17
2019-04-30T10:42:58.624Z,28.29
2019-04-30T10:45:32.147Z,28.41
2019-04-30T10:48:05.669Z,28.79
2019-04-30T10:50:41.272Z,28.68
2019-04-30T10:53:17.256Z,27.75
2019-04-30T10:55:50.957Z,28.49
2019-04-30T10:58:24.913Z,29.12
2019-04-30T11:00:59.496Z,27.91
2019-04-30T11:03:35.435Z,28.88
2019-04-30T11:06:09.878Z,28.88
2019-04-30T11:08:45.235Z,28.10
2019-04-30T11:11:18.666Z,28.62
2019-04-30T11:13:54.031Z,28.80
2019-04-30T11:16:29.770Z,28.83
2019-04-30T11:19:03.565Z,29.32
2019-04-30T11:21:38.018Z,29.84
2019-04-30T11:24:12.957Z,29.57
2019-04-30T11:26:49.776Z,29.52
2019-04-30T11:29:24.580Z,29.20
2019-04-30T11:32:16.055Z,28.82
2019-04-30T11:34:49.946Z,29.12
2019-04-30T11:37:23.762Z,28.52
2019-04-30T11:39:57.076Z,28.29
2019-04-30T11:42:32.276Z,28.47
2019-04-30T11:45:08.567Z,27.82
2019-04-30T11:47:53.061Z,28.36
2019-04-30T11:50:21.753Z,28.26
2019-04-30T11:53:09.633Z,27.24
2019-04-30T11:55:32.009Z,27.99
2019-04-30T11:58:06.182Z,27.95
2019-04-30T12:00:42.343Z,27.32
2019-04-30T12:03:15.711Z,27.11
2019-04-30T12:05:50.363Z,27.03
2019-04-30T12:08:29.387Z,26.96
2019-04-30T12:11:11.075Z,25.93
2019-04-30T12:13:44.865Z,25.88
2019-04-30T12:16:18.769Z,25.84
2019-04-30T12:18:54.275Z,25.96
2019-04-30T12:21:28.118Z,25.74
2019-04-30T12:24:02.863Z,26.55
2019-04-30T12:26:38.938Z,27.08
2019-04-30T12:29:12.537Z,27.14
2019-04-30T12:31:46.049Z,27.37
2019-04-30T12:34:20.420Z,26.74
2019-04-30T12:36:54.885Z,27.53
2019-04-30T12:39:30.150Z,28.09
2019-04-30T12:42:04.738Z,28.74
2019-04-30T12:44:39.946Z,29.24
2019-04-30T12:47:13.519Z,29.13
2019-04-30T12:50:00.887Z,28.05
2019-04-30T12:52:39.512Z,27.63
2019-04-30T12:55:30.202Z,27.66
2019-04-30T12:58:04.695Z,25.86
2019-04-30T13:00:39.489Z,24.77
2019-04-30T13:03:14.308Z,23.85
2019-04-30T13:05:50.892Z,23.67
2019-04-30T13:08:25.144Z,23.74
2019-04-30T13:11:00.462Z,23.77
2019-04-30T13:13:35.694Z,24.60
2019-04-30T13:16:10.465Z,25.05
2019-04-30T13:18:45.106Z,25.05
2019-04-30T13:21:20.645Z,25.90
2019-04-30T13:23:55.662Z,26.93
2019-04-30T13:26:32.344Z,27.04
2019-04-30T13:29:13.979Z,26.98
2019-04-30T13:31:50.100Z,24.98
2019-04-30T13:35:00.687Z,24.98
2019-04-30T13:37:45.131Z,25.21
2019-04-30T13:40:42.598Z,25.15
2019-04-30T13:43:18.170Z,25.27
2019-04-30T13:45:52.406Z,24.00
2019-04-30T13:48:27.153Z,23.77
2019-04-30T13:51:01.392Z,23.54
2019-04-30T13:53:34.930Z,23.13
2019-04-30T13:56:08.896Z,22.93
2019-04-30T13:58:42.923Z,22.50
2019-04-30T14:01:18.852Z,22.19
2019-04-30T14:04:08.952Z,22.08
2019-04-30T14:07:10.402Z,21.89
2019-04-30T14:09:45.076Z,21.94
2019-04-30T14:12:19.733Z,21.92
2019-04-30T14:14:53.754Z,21.65
2019-04-30T14:17:29.633Z,21.53
2019-04-30T14:20:04.710Z,21.28
2019-04-30T14:22:38.169Z,20.69
2019-04-30T14:25:12.185Z,20.51
2019-04-30T14:27:52.247Z,20.44
2019-04-30T14:30:22.598Z,20.54
2019-04-30T14:32:56.845Z,20.71
2019-04-30T14:35:30.460Z,20.97
2019-04-30T14:38:05.251Z,21.34
2019-04-30T14:40:40.430Z,21.49
2019-04-30T14:43:27.502Z,21.35
2019-04-30T14:46:33.410Z,21.33
2019-04-30T14:49:27.998Z,21.19
2019-04-30T14:52:02.738Z,21.00
2019-04-30T14:54:51.253Z,20.80
2019-04-30T14:57:53.987Z,20.71
2019-04-30T15:00:53.134Z,21.42
2019-04-30T15:03:29.498Z,21.92
2019-04-30T15:06:04.234Z,21.55
2019-04-30T15:08:39.409Z,21.18
2019-04-30T15:11:13.595Z,20.91
2019-04-30T15:13:49.264Z,20.76
2019-04-30T15:16:23.060Z,20.73
2019-04-30T15:18:56.526Z,21.04
2019-04-30T15:21:31.045Z,21.06
2019-04-30T15:24:23.702Z,20.89
2019-04-30T15:26:58.179Z,20.79
2019-04-30T15:29:38.684Z,20.41
2019-04-30T15:32:12.323Z,19.68
2019-04-30T15:34:46.607Z,19.04
2019-04-30T15:37:28.652Z,18.78
2019-04-30T15:40:02.506Z,18.82
2019-04-30T15:42:40.237Z,18.68
2019-04-30T15:45:16.038Z,18.74
2019-04-30T15:47:50.166Z,18.30
2019-04-30T15:50:24.043Z,18.77
2019-04-30T15:52:59.499Z,19.08
2019-04-30T15:55:33.676Z,19.46
2019-04-30T15:58:14.400Z,19.72
2019-04-30T16:00:50.165Z,19.93
2019-04-30T16:03:27.350Z,20.16
2019-04-30T16:06:03.354Z,20.32
2019-04-30T16:08:52.653Z,20.34
2019-04-30T16:11:49.204Z,20.15
2019-04-30T16:14:33.404Z,19.98
2019-04-30T16:17:13.243Z,19.99
2019-04-30T16:19:47.445Z,19.37
2019-04-30T16:22:22.922Z,19.50
2019-04-30T16:24:56.803Z,19.42
2019-04-30T16:27:30.962Z,19.28
2019-04-30T16:30:06.201Z,19.11
2019-04-30T16:32:41.041Z,18.66
2019-04-30T16:35:16.436Z,18.87
2019-04-30T16:37:50.988Z,18.45
2019-04-30T16:40:25.724Z,18.57
2019-04-30T16:42:59.321Z,18.66
2019-04-30T16:45:33.554Z,18.44
2019-04-30T16:48:09.845Z,18.70
2019-04-30T16:50:44.635Z,18.75
2019-04-30T16:53:20.523Z,18.77
2019-04-30T16:55:58.539Z,18.90
2019-04-30T16:58:51.044Z,19.00
2019-04-30T17:01:24.822Z,19.09
2019-04-30T17:04:03.904Z,19.08
2019-04-30T17:06:43.101Z,19.07
2019-04-30T17:09:27.433Z,19.08
2019-04-30T17:12:13.763Z,18.38
2019-04-30T17:14:50.018Z,17.93
2019-04-30T17:17:25.181Z,17.45
2019-04-30T17:19:59.535Z,17.18
2019-04-30T17:22:34.384Z,17.00
2019-04-30T17:25:09.165Z,16.52
2019-04-30T17:27:43.531Z,16.28
2019-04-30T17:30:19.313Z,15.76
2019-04-30T17:32:55.770Z,15.60
2019-04-30T17:35:29.956Z,15.27
2019-04-30T17:38:03.718Z,15.01
2019-04-30T17:40:38.989Z,14.76
2019-04-30T17:43:12.873Z,14.65
2019-04-30T17:45:46.640Z,14.36
2019-04-30T17:48:20.905Z,14.37
2019-04-30T17:50:55.430Z,14.39
2019-04-30T17:53:29.680Z,14.36
2019-04-30T17:56:03.563Z,14.38
2019-04-30T17:58:37.554Z,14.45
2019-04-30T18:01:12.199Z,14.52
2019-04-30T18:03:48.770Z,14.45
2019-04-30T18:06:25.232Z,14.63
2019-04-30T18:09:00.178Z,14.70
2019-04-30T18:11:34.263Z,14.81
2019-04-30T18:14:09.365Z,14.65
2019-04-30T18:16:43.388Z,14.30
2019-04-30T18:19:32.950Z,14.15
2019-04-30T18:22:33.623Z,13.98
2019-04-30T18:25:26.636Z,13.98
2019-04-30T18:28:02.814Z,13.89
2019-04-30T18:30:39.403Z,13.79
2019-04-30T18:33:15.289Z,13.83
2019-04-30T18:35:51.534Z,13.77
2019-04-30T18:38:31.120Z,13.71
2019-04-30T18:41:05.300Z,13.71
2019-04-30T18:43:40.492Z,13.66
2019-04-30T18:46:15.012Z,13.68
2019-04-30T18:48:52.759Z,13.66
2019-04-30T18:51:38.304Z,13.65
2019-04-30T18:54:05.116Z,13.54
2019-04-30T18:56:41.483Z,13.38
2019-04-30T18:59:16.223Z,13.40
2019-04-30T19:01:50.966Z,13.38
2019-04-30T19:04:25.195Z,13.25
2019-04-30T19:07:04.151Z,13.11
2019-04-30T19:10:00.106Z,13.08
2019-04-30T19:12:51.938Z,13.03
2019-04-30T19:16:14.676Z,12.90
2019-04-30T19:18:41.180Z,12.94
2019-04-30T19:21:16.341Z,12.99
2019-04-30T19:23:50.568Z,12.98
2019-04-30T19:26:25.720Z,13.07
2019-04-30T19:29:02.025Z,13.02
2019-04-30T19:31:39.366Z,12.98
2019-04-30T19:34:14.223Z,12.93
2019-04-30T19:36:49.291Z,12.79
2019-04-30T19:39:23.796Z,12.73
2019-04-30T19:42:01.054Z,12.58
2019-04-30T19:44:34.919Z,12.44
2019-04-30T19:47:09.469Z,12.30
2019-04-30T19:49:45.407Z,12.33
2019-04-30T19:52:21.574Z,12.20
2019-04-30T19:54:55.325Z,12.18
2019-04-30T19:57:30.695Z,12.11
2019-04-30T20:00:06.231Z,12.07
2019-04-30T20:02:42.810Z,12.06
2019-04-30T20:05:19.268Z,12.04
2019-04-30T20:07:56.482Z,12.12
2019-04-30T20:10:31.322Z,12.16
2019-04-30T20:13:10.536Z,12.22
2019-04-30T20:15:44.852Z,12.19
2019-04-30T20:18:19.353Z,12.20
2019-04-30T20:20:56.093Z,12.22
2019-04-30T20:23:30.927Z,12.17
2019-04-30T20:26:04.370Z,12.09
2019-04-30T20:28:41.674Z,12.06
2019-04-30T20:31:13.715Z,12.07
2019-04-30T20:33:48.946Z,12.13
2019-04-30T20:36:23.433Z,12.01
2019-04-30T20:39:19.161Z,11.95
2019-04-30T20:41:57.765Z,11.88
2019-04-30T20:44:32.537Z,11.84
2019-04-30T20:47:08.956Z,11.92
2019-04-30T20:49:43.281Z,11.97
2019-04-30T20:52:18.971Z,11.98
2019-04-30T20:54:53.665Z,11.92
2019-04-30T20:57:29.556Z,11.88
2019-04-30T21:00:03.555Z,11.86
2019-04-30T21:02:38.717Z,11.81
2019-04-30T21:05:14.059Z,11.78
2019-04-30T21:07:49.599Z,11.75
2019-04-30T21:10:25.144Z,11.74
2019-04-30T21:12:59.947Z,11.68
2019-04-30T21:15:34.807Z,11.68
2019-04-30T21:18:11.681Z,11.62
2019-04-30T21:20:45.472Z,11.69
2019-04-30T21:23:20.790Z,11.68
2019-04-30T21:26:01.665Z,11.65
2019-04-30T21:28:36.497Z,11.64
2019-04-30T21:31:29.086Z,11.52
2019-04-30T21:34:24.664Z,11.50
2019-04-30T21:36:59.669Z,11.45
2019-04-30T21:39:34.291Z,11.38
2019-04-30T21:42:09.431Z,11.30
2019-04-30T21:44:44.983Z,11.31
2019-04-30T21:47:18.787Z,11.26
2019-04-30T21:49:52.925Z,11.27
2019-04-30T21:52:27.509Z,11.21
2019-04-30T21:55:02.327Z,11.20
2019-04-30T21:57:39.218Z,11.17
2019-04-30T22:00:18.453Z,11.09
2019-04-30T22:02:54.247Z,11.12
2019-04-30T22:05:28.874Z,11.14
2019-04-30T22:08:03.070Z,11.13
2019-04-30T22:10:39.679Z,11.15
2019-04-30T22:13:18.531Z,11.23
2019-04-30T22:15:53.260Z,11.21
2019-04-30T22:18:27.364Z,11.19
2019-04-30T22:21:01.292Z,11.20
2019-04-30T22:23:35.370Z,11.19
2019-04-30T22:26:10.327Z,11.18
2019-04-30T22:28:44.905Z,11.21
2019-04-30T22:31:19.709Z,11.19
2019-04-30T22:33:55.525Z,11.13
2019-04-30T22:36:38.756Z,11.10
2019-04-30T22:39:39.415Z,11.13
2019-04-30T22:42:41.605Z,11.21
2019-04-30T22:45:26.589Z,11.25
2019-04-30T22:48:00.401Z,11.29
2019-04-30T22:50:34.091Z,11.25
2019-04-30T22:53:08.373Z,11.28
2019-04-30T22:55:42.505Z,11.24
2019-04-30T22:58:15.958Z,11.20
2019-04-30T23:00:50.232Z,11.21
2019-04-30T23:03:36.202Z,11.27
2019-04-30T23:06:10.304Z,11.25
2019-04-30T23:08:44.624Z,11.27
2019-04-30T23:11:18.825Z,11.29
2019-04-30T23:13:52.917Z,11.30
2019-04-30T23:16:27.215Z,11.23
2019-04-30T23:19:01.138Z,11.20
2019-04-30T23:21:35.944Z,11.07
2019-04-30T23:24:10.604Z,10.96
2019-04-30T23:26:44.183Z,10.91
2019-04-30T23:29:18.392Z,10.82
2019-04-30T23:31:51.708Z,10.84
2019-04-30T23:34:27.179Z,10.85
2019-04-30T23:37:00.888Z,10.71
2019-04-30T23:39:34.618Z,10.75
2019-04-30T23:42:08.112Z,10.72
2019-04-30T23:44:41.787Z,10.72
2019-04-30T23:47:15.376Z,10.65
2019-04-30T23:49:49.552Z,10.68
2019-04-30T23:52:23.241Z,10.72
2019-04-30T23:54:57.015Z,10.73
2019-04-30T23:57:30.350Z,10.72
